createdAt,value
2023-03-26T00:00:41.216Z,6.5196
2023-03-26T00:01:43.439Z,6.1771
2023-03-26T00:02:45.659Z,5.0037
2023-03-26T00:03:47.770Z,6.4629
2023-03-26T00:04:49.935Z,5.3607
2023-03-26T00:05:52.352Z,4.7171
2023-03-26T00:06:54.729Z,5.7299
2023-03-26T00:07:56.906Z,5.4136
2023-03-26T00:08:59.056Z,6.4109
2023-03-26T00:10:01.439Z,6.0007
2023-03-26T00:12:05.660Z,4.3772
2023-03-26T00:13:07.779Z,5.3037
2023-03-26T00:14:09.979Z,6.0564
2023-03-26T00:15:12.068Z,5.0703
2023-03-26T00:16:14.264Z,4.2536
2023-03-26T00:17:16.452Z,3.6684
2023-03-26T00:18:18.612Z,5.4196
2023-03-26T00:19:20.787Z,5.0075
2023-03-26T00:21:25.023Z,4.2629
2023-03-26T00:22:27.232Z,3.7843
2023-03-26T00:23:29.385Z,3.0300
2023-03-26T00:24:31.547Z,2.8550
2023-03-26T00:25:33.730Z,2.5025
2023-03-26T00:27:37.906Z,2.6869
2023-03-26T00:28:40.134Z,2.3882
2023-03-26T00:29:42.240Z,2.0964
2023-03-26T00:30:44.421Z,2.1563
2023-03-26T00:31:46.791Z,0.2330
2023-03-26T00:32:53.327Z,1.5084
2023-03-26T00:33:52.684Z,1.4775
2023-03-26T00:34:54.805Z,3.0321
2023-03-26T00:35:57.126Z,5.1849
2023-03-26T00:36:59.475Z,4.5187
2023-03-26T00:38:01.655Z,2.1563
2023-03-26T00:39:03.813Z,3.4381
2023-03-26T00:40:05.995Z,1.5715
2023-03-26T00:41:08.181Z,4.3111
2023-03-26T00:42:10.390Z,1.6296
2023-03-26T00:43:12.547Z,2.2142
2023-03-26T00:44:14.711Z,2.5041
2023-03-26T00:45:16.885Z,0.6408
2023-03-26T00:46:19.128Z,0.2911
2023-03-26T00:47:21.304Z,0.2909
2023-03-26T00:48:31.576Z,2.0385
2023-03-26T00:49:27.221Z,1.7616
2023-03-26T00:50:29.376Z,2.0978
2023-03-26T00:51:31.574Z,0.2911
2023-03-26T00:52:33.769Z,0.7568
2023-03-26T00:54:38.098Z,2.8560
2023-03-26T00:55:40.296Z,2.2706
2023-03-26T00:56:42.425Z,2.3317
2023-03-26T00:57:44.559Z,0.6994
2023-03-26T00:58:46.697Z,1.5730
2023-03-26T00:59:48.877Z,0.3495
2023-03-26T01:00:50.984Z,2.0994
2023-03-26T01:02:55.270Z,1.9853
2023-03-26T01:04:07.601Z,1.1058
2023-03-26T01:05:01.131Z,2.2176
2023-03-26T01:06:03.325Z,1.1059
2023-03-26T01:07:05.476Z,1.9232
2023-03-26T01:08:07.661Z,0.2912
2023-03-26T01:09:09.827Z,3.4357
2023-03-26T01:11:14.207Z,2.1026
2023-03-26T01:12:16.616Z,1.2148
2023-03-26T01:13:18.753Z,0.7575
2023-03-26T01:14:20.947Z,0.7572
2023-03-26T01:15:23.103Z,0.6995
2023-03-26T01:16:25.306Z,1.7473
2023-03-26T01:17:27.469Z,1.8609
2023-03-26T01:18:29.705Z,0.6991
2023-03-26T01:19:31.838Z,1.8637
2023-03-26T01:20:33.961Z,1.8070
2023-03-26T01:21:36.103Z,0.0000
2023-03-26T01:22:38.275Z,1.2236
2023-03-26T01:23:40.352Z,1.1658
2023-03-26T01:24:42.564Z,0.6409
2023-03-26T01:25:44.703Z,0.0000
2023-03-26T01:26:46.896Z,0.2329
2023-03-26T01:27:49.003Z,1.2239
2023-03-26T01:28:51.223Z,2.0965
2023-03-26T01:29:53.336Z,1.8064
2023-03-26T01:30:55.529Z,1.6899
2023-03-26T01:31:57.664Z,2.0972
2023-03-26T01:32:59.912Z,1.8061
2023-03-26T01:34:02.090Z,2.3850
2023-03-26T01:35:04.268Z,1.9811
2023-03-26T01:36:06.449Z,3.0299
2023-03-26T01:37:08.724Z,2.2675
2023-03-26T01:38:11.067Z,2.5620
2023-03-26T01:39:13.729Z,2.8292
2023-03-26T01:40:15.884Z,2.1521
2023-03-26T01:41:18.114Z,3.4354
2023-03-26T01:42:20.311Z,2.3880
2023-03-26T01:43:22.517Z,1.9788
2023-03-26T01:44:24.691Z,2.7962
2023-03-26T01:45:26.914Z,2.9117
2023-03-26T01:46:29.200Z,2.2107
2023-03-26T01:47:31.362Z,1.6886
2023-03-26T01:48:33.495Z,0.0000
2023-03-26T01:49:35.734Z,1.0486
2023-03-26T01:50:37.927Z,2.2689
2023-03-26T01:51:40.273Z,1.8650
2023-03-26T01:52:42.484Z,1.2192
2023-03-26T01:53:44.665Z,2.1555
2023-03-26T01:54:46.894Z,1.5127
2023-03-26T01:55:49.046Z,1.4567
2023-03-26T01:56:51.297Z,1.6883
2023-03-26T01:57:53.460Z,1.3982
2023-03-26T01:58:55.659Z,1.3967
2023-03-26T01:59:57.882Z,0.0000
2023-03-26T02:01:00.038Z,2.2721
2023-03-26T02:02:02.331Z,1.5139
2023-03-26T02:03:04.564Z,1.8034
2023-03-26T02:04:06.864Z,3.7772
2023-03-26T02:06:11.078Z,2.6295
2023-03-26T02:07:13.267Z,4.4235
2023-03-26T02:11:23.220Z,1.3388
2023-03-26T02:13:27.744Z,4.3752
2023-03-26T02:14:29.949Z,5.1257
2023-03-26T02:15:32.131Z,4.1898
2023-03-26T02:16:34.374Z,1.7473
2023-03-26T02:17:36.623Z,3.2552
2023-03-26T02:18:38.888Z,2.4452
2023-03-26T02:20:43.071Z,1.9843
2023-03-26T02:21:45.252Z,2.0392
2023-03-26T02:22:47.480Z,3.4927
2023-03-26T02:23:49.694Z,1.6301
2023-03-26T02:24:51.878Z,2.0372
2023-03-26T02:25:54.154Z,1.3401
2023-03-26T02:26:56.711Z,0.2891
2023-03-26T02:27:58.919Z,0.7563
2023-03-26T02:29:01.174Z,3.0873
2023-03-26T02:30:03.394Z,3.1989
2023-03-26T02:31:05.632Z,4.0755
2023-03-26T02:32:07.823Z,3.0265
2023-03-26T02:33:10.072Z,0.0583
2023-03-26T02:34:12.256Z,0.0581
2023-03-26T02:35:14.551Z,2.2128
2023-03-26T02:36:16.883Z,3.1364
2023-03-26T02:37:19.139Z,3.1419
2023-03-26T02:38:21.364Z,0.2908
2023-03-26T02:39:23.812Z,1.3922
2023-03-26T02:40:25.989Z,1.0484
2023-03-26T02:41:28.219Z,3.1425
2023-03-26T02:42:30.405Z,2.0971
2023-03-26T02:43:32.603Z,4.8321
2023-03-26T02:45:36.954Z,2.0419
2023-03-26T02:46:39.182Z,4.2476
2023-03-26T02:47:41.425Z,2.5057
2023-03-26T02:48:43.623Z,1.9765
2023-03-26T02:49:45.896Z,1.5135
2023-03-26T02:50:48.052Z,2.8532
2023-03-26T02:51:50.275Z,4.5400
2023-03-26T02:52:52.433Z,6.2347
2023-03-26T02:53:54.667Z,0.4657
2023-03-26T02:54:56.864Z,1.3386
2023-03-26T02:57:01.176Z,1.8086
2023-03-26T02:58:03.390Z,0.6399
2023-03-26T02:59:05.630Z,4.9473
2023-03-26T03:00:07.867Z,2.3855
2023-03-26T03:01:10.090Z,3.3180
2023-03-26T03:02:12.308Z,2.4453
2023-03-26T03:03:14.460Z,2.3304
2023-03-26T03:04:16.731Z,3.6640
2023-03-26T03:05:18.965Z,2.9688
2023-03-26T03:06:21.133Z,5.1253
2023-03-26T03:07:23.396Z,4.7132
2023-03-26T03:08:25.623Z,1.8614
2023-03-26T03:09:27.791Z,3.2596
2023-03-26T03:10:29.940Z,2.3317
2023-03-26T03:11:32.187Z,3.7257
2023-03-26T03:12:34.389Z,2.8520
2023-03-26T03:13:36.568Z,0.5242
2023-03-26T03:14:38.745Z,2.2119
2023-03-26T03:15:40.930Z,1.6889
2023-03-26T03:16:43.158Z,0.9314
2023-03-26T03:17:45.423Z,3.4321
2023-03-26T03:18:47.595Z,1.8048
2023-03-26T03:19:49.750Z,2.7384
2023-03-26T03:20:51.986Z,2.5029
2023-03-26T03:21:54.163Z,1.0474
2023-03-26T03:22:56.466Z,2.5037
2023-03-26T03:24:00.071Z,1.7446
2023-03-26T03:25:02.712Z,2.9968
2023-03-26T03:26:04.941Z,1.7464
2023-03-26T03:27:07.127Z,1.7459
2023-03-26T03:28:09.274Z,0.8159
2023-03-26T03:29:11.503Z,4.7148
2023-03-26T03:30:13.735Z,3.7846
2023-03-26T03:31:15.936Z,3.0276
2023-03-26T03:32:18.132Z,1.2798
2023-03-26T03:33:20.331Z,5.1864
2023-03-26T03:34:22.517Z,2.5024
2023-03-26T03:35:24.805Z,5.5286
2023-03-26T03:36:27.051Z,1.6863
2023-03-26T03:37:29.221Z,2.8539
2023-03-26T03:38:31.422Z,3.5511
2023-03-26T03:39:33.675Z,9.0780
2023-03-26T03:40:35.856Z,4.1364
2023-03-26T03:41:38.069Z,4.4221
2023-03-26T03:42:40.310Z,3.7820
2023-03-26T03:44:44.702Z,2.9690
2023-03-26T03:45:46.956Z,3.0872
2023-03-26T03:46:49.200Z,2.3851
2023-03-26T03:47:51.406Z,2.3286
2023-03-26T03:48:53.580Z,2.6786
2023-03-26T03:49:55.855Z,3.0228
2023-03-26T03:50:58.112Z,1.2803
2023-03-26T03:52:00.370Z,0.5234
2023-03-26T03:53:02.577Z,3.3781
2023-03-26T03:54:04.797Z,1.4546
2023-03-26T03:55:06.994Z,5.0642
2023-03-26T03:56:09.155Z,3.5548
2023-03-26T03:57:11.502Z,3.8410
2023-03-26T03:58:13.666Z,3.3726
2023-03-26T03:59:15.863Z,3.3186
2023-03-26T04:00:18.179Z,3.1983
2023-03-26T04:01:20.350Z,7.6275
2023-03-26T04:02:22.618Z,1.1640
2023-03-26T04:03:33.489Z,0.0000
2023-03-26T04:04:28.516Z,3.8094
2023-03-26T04:05:30.702Z,2.3271
2023-03-26T04:06:32.893Z,2.5050
2023-03-26T04:07:35.063Z,1.2230
2023-03-26T04:08:37.275Z,6.2255
2023-03-26T04:09:39.503Z,1.5145
2023-03-26T04:13:47.857Z,3.6206
2023-03-26T04:14:50.076Z,4.4789
2023-03-26T04:15:52.425Z,3.0293
2023-03-26T04:17:56.878Z,1.9858
2023-03-26T04:18:59.114Z,2.1512
2023-03-26T04:20:01.293Z,2.9119
2023-03-26T04:21:03.500Z,2.1535
2023-03-26T04:22:05.699Z,0.7573
2023-03-26T04:23:07.916Z,2.8515
2023-03-26T04:24:10.122Z,0.0582
2023-03-26T04:25:12.260Z,0.9322
2023-03-26T04:26:14.515Z,0.3492
2023-03-26T04:27:16.653Z,0.3494
2023-03-26T04:28:18.887Z,0.6405
2023-03-26T04:29:21.082Z,0.5825
2023-03-26T04:30:23.285Z,5.0030
2023-03-26T04:31:25.446Z,1.4560
2023-03-26T04:32:27.689Z,5.5925
2023-03-26T04:33:29.837Z,6.1129
2023-03-26T04:35:34.147Z,5.0163
2023-03-26T04:36:36.281Z,4.1929
2023-03-26T04:37:38.485Z,4.0748
2023-03-26T04:38:40.700Z,2.8528
2023-03-26T04:39:42.863Z,3.9606
2023-03-26T04:40:45.101Z,2.5016
2023-03-26T04:41:47.358Z,5.4149
2023-03-26T04:42:49.606Z,3.7812
2023-03-26T04:44:53.842Z,0.4668
2023-03-26T04:45:56.125Z,1.1648
2023-03-26T04:46:58.635Z,6.3628
2023-03-26T04:48:00.881Z,6.7561
2023-03-26T04:49:03.184Z,4.1806
2023-03-26T04:50:05.404Z,5.0630
2023-03-26T04:51:07.658Z,6.9825
2023-03-26T04:52:09.865Z,5.4126
2023-03-26T04:53:12.033Z,5.3597
2023-03-26T04:54:14.264Z,3.5500
2023-03-26T04:56:18.509Z,4.3179
2023-03-26T04:57:20.686Z,4.8931
2023-03-26T04:58:22.873Z,4.4826
2023-03-26T04:59:25.081Z,1.3980
2023-03-26T05:00:27.269Z,0.6991
2023-03-26T05:01:29.533Z,5.0045
2023-03-26T05:02:31.830Z,5.7605
2023-03-26T05:03:34.050Z,5.4639
2023-03-26T05:04:36.274Z,6.6353
2023-03-26T05:05:38.492Z,2.6187
2023-03-26T05:06:40.675Z,1.3979
2023-03-26T05:07:42.906Z,3.6082
2023-03-26T05:08:45.079Z,5.8819
2023-03-26T05:09:47.308Z,2.2109
2023-03-26T05:10:49.460Z,0.2330
2023-03-26T05:12:53.686Z,2.6850
2023-03-26T05:13:55.892Z,1.4561
2023-03-26T05:14:58.099Z,2.5600
2023-03-26T05:16:00.282Z,2.7969
2023-03-26T05:17:02.508Z,0.5237
2023-03-26T05:18:04.722Z,6.9309
2023-03-26T05:21:11.074Z,2.1601
2023-03-26T05:22:13.273Z,3.5528
2023-03-26T05:23:15.518Z,3.2578
2023-03-26T05:24:17.631Z,4.7184
2023-03-26T05:25:19.900Z,5.0639
2023-03-26T05:26:22.148Z,4.9461
2023-03-26T05:27:24.327Z,2.7378
2023-03-26T05:28:26.546Z,2.1535
2023-03-26T05:29:28.799Z,1.1637
2023-03-26T05:30:30.994Z,2.3866
2023-03-26T05:31:33.182Z,3.4349
2023-03-26T05:32:35.392Z,5.5942
2023-03-26T05:33:37.751Z,4.9394
2023-03-26T05:34:40.016Z,2.3236
2023-03-26T05:35:42.281Z,2.3275
2023-03-26T05:36:44.442Z,5.9980
2023-03-26T05:37:46.653Z,5.9349
2023-03-26T05:38:48.819Z,4.0788
2023-03-26T05:39:51.056Z,1.6875
2023-03-26T05:40:53.595Z,2.0958
2023-03-26T05:41:55.994Z,1.5011
2023-03-26T05:44:00.224Z,0.9338
2023-03-26T05:45:02.445Z,0.0000
2023-03-26T05:46:04.647Z,1.4560
2023-03-26T05:47:06.872Z,2.0934
2023-03-26T05:48:09.051Z,2.6211
2023-03-26T05:49:11.266Z,3.2587
2023-03-26T05:50:13.431Z,0.6408
2023-03-26T05:51:15.701Z,0.2328
2023-03-26T05:52:17.939Z,1.5703
2023-03-26T05:54:22.261Z,2.2764
2023-03-26T05:55:24.508Z,1.9793
2023-03-26T05:57:28.892Z,2.8011
2023-03-26T05:58:31.139Z,4.5314
2023-03-26T05:59:33.349Z,3.9583
2023-03-26T06:00:35.509Z,2.5629
2023-03-26T06:01:37.711Z,4.1921
2023-03-26T06:02:39.911Z,3.3206
2023-03-26T06:03:42.168Z,3.4928
2023-03-26T06:04:44.393Z,1.8614
2023-03-26T06:05:46.623Z,2.9077
2023-03-26T06:06:48.787Z,3.6106
2023-03-26T06:07:51.033Z,4.2517
2023-03-26T06:09:01.395Z,2.3278
2023-03-26T06:09:56.867Z,0.0000
2023-03-26T06:10:59.043Z,0.0000
2023-03-26T06:12:01.220Z,0.0000
2023-03-26T06:13:03.490Z,0.0000
2023-03-26T06:14:05.709Z,0.6400
2023-03-26T06:15:07.860Z,3.0289
2023-03-26T06:16:10.134Z,2.2697
2023-03-26T06:17:13.746Z,4.0388
2023-03-26T06:18:15.984Z,0.6400
2023-03-26T06:19:18.122Z,3.4947
2023-03-26T06:20:20.341Z,0.8155
2023-03-26T06:21:22.611Z,4.4176
2023-03-26T06:22:24.839Z,2.4449
2023-03-26T06:23:27.019Z,2.0378
2023-03-26T06:24:29.161Z,0.0000
2023-03-26T06:25:31.355Z,0.0000
2023-03-26T06:26:33.563Z,2.6805
2023-03-26T06:27:35.763Z,3.0254
2023-03-26T06:28:37.935Z,0.0583
2023-03-26T06:29:40.150Z,0.6402
2023-03-26T06:30:42.339Z,4.0186
2023-03-26T06:31:44.563Z,1.9789
2023-03-26T06:32:46.792Z,1.5136
2023-03-26T06:33:48.999Z,0.0000
2023-03-26T06:34:51.234Z,0.0000
2023-03-26T06:35:53.432Z,0.0000
2023-03-26T06:36:55.625Z,0.0000
2023-03-26T06:37:57.803Z,0.0000
2023-03-26T06:40:02.012Z,1.4000
2023-03-26T06:41:04.238Z,0.8734
2023-03-26T06:42:06.452Z,3.6085
2023-03-26T06:43:10.941Z,3.4920
2023-03-26T06:44:09.093Z,1.2599
2023-03-26T06:45:11.312Z,1.3954
2023-03-26T06:46:13.552Z,2.2124
2023-03-26T06:47:15.787Z,2.7916
2023-03-26T06:48:18.019Z,0.8726
2023-03-26T06:49:20.180Z,2.0970
2023-03-26T06:50:22.452Z,1.1057
2023-03-26T06:51:24.642Z,0.2912
2023-03-26T06:52:26.873Z,2.3858
2023-03-26T06:53:29.024Z,1.5144
2023-03-26T06:54:31.288Z,3.4328
2023-03-26T06:55:33.557Z,3.5510
2023-03-26T06:56:35.729Z,3.6066
2023-03-26T06:57:37.964Z,1.6883
2023-03-26T06:58:40.233Z,1.0469
2023-03-26T06:59:42.412Z,1.6308
2023-03-26T07:00:44.731Z,2.0934
2023-03-26T07:01:46.924Z,2.1538
2023-03-26T07:02:49.128Z,3.3204
2023-03-26T07:03:51.333Z,1.6293
2023-03-26T07:04:53.522Z,1.1062
2023-03-26T07:05:55.745Z,0.2909
2023-03-26T07:06:57.970Z,3.8990
2023-03-26T07:08:00.160Z,5.8837
2023-03-26T07:10:04.417Z,7.6468
2023-03-26T07:11:06.681Z,1.2222
2023-03-26T07:12:08.863Z,6.4030
2023-03-26T07:13:11.157Z,12.2811
2023-03-26T07:14:13.383Z,10.1160
2023-03-26T07:15:15.577Z,16.0194
2023-03-26T07:16:17.789Z,12.8640
2023-03-26T07:17:19.962Z,12.2314
2023-03-26T07:18:22.199Z,14.8963
2023-03-26T07:19:24.337Z,14.5074
2023-03-26T07:21:28.608Z,11.2675
2023-03-26T07:22:30.809Z,11.3477
2023-03-26T07:23:33.169Z,11.7128
2023-03-26T07:24:35.373Z,13.7527
2023-03-26T07:25:37.606Z,13.4450
2023-03-26T07:26:39.792Z,16.1270
2023-03-26T07:27:42.021Z,14.8443
2023-03-26T07:28:44.230Z,13.6776
2023-03-26T07:29:47.949Z,11.6547
2023-03-26T07:30:50.088Z,10.0168
2023-03-26T07:31:52.530Z,9.4907
2023-03-26T07:32:54.775Z,4.6977
2023-03-26T07:33:56.957Z,6.5814
2023-03-26T07:34:59.190Z,5.7024
2023-03-26T07:36:01.370Z,4.9502
2023-03-26T07:37:03.637Z,6.1724
2023-03-26T07:38:05.853Z,4.4768
2023-03-26T07:39:08.012Z,6.2279
2023-03-26T07:40:10.261Z,5.5308
2023-03-26T07:42:14.513Z,9.7435
2023-03-26T07:43:16.668Z,5.7643
2023-03-26T07:44:18.877Z,4.1952
2023-03-26T07:45:21.082Z,5.2359
2023-03-26T07:46:23.307Z,3.0870
2023-03-26T07:48:27.654Z,6.0689
2023-03-26T07:49:29.868Z,4.1343
2023-03-26T07:50:32.077Z,3.6102
2023-03-26T07:51:34.272Z,4.8319
2023-03-26T07:52:36.499Z,10.3659
2023-03-26T07:53:38.721Z,10.3468
2023-03-26T07:54:41.026Z,8.0912
2023-03-26T07:55:43.223Z,8.7834
2023-03-26T07:56:45.558Z,9.6619
2023-03-26T07:57:47.771Z,8.4199
2023-03-26T07:58:49.912Z,7.7494
2023-03-26T08:02:58.330Z,3.2108
2023-03-26T08:05:02.756Z,2.8006
2023-03-26T08:06:05.176Z,5.8435
2023-03-26T08:07:07.343Z,6.9319
2023-03-26T08:08:09.558Z,5.2957
2023-03-26T08:09:11.742Z,5.6499
2023-03-26T08:10:13.932Z,2.6770
2023-03-26T08:12:18.130Z,6.7736
2023-03-26T08:13:20.370Z,3.4343
2023-03-26T08:14:22.572Z,3.2592
2023-03-26T08:15:24.750Z,2.2132
2023-03-26T08:17:30.647Z,4.9638
2023-03-26T08:18:29.226Z,5.7637
2023-03-26T08:19:31.453Z,6.9831
2023-03-26T08:20:33.607Z,4.4840
2023-03-26T08:21:35.837Z,5.4142
2023-03-26T08:22:37.959Z,4.9494
2023-03-26T08:23:50.371Z,6.9908
2023-03-26T08:24:43.833Z,4.2084
2023-03-26T08:25:46.061Z,3.4318
2023-03-26T08:26:48.220Z,4.6586
2023-03-26T08:27:50.448Z,4.4245
2023-03-26T08:28:52.581Z,6.4640
2023-03-26T08:29:54.761Z,3.3191
2023-03-26T08:30:57.317Z,1.9211
2023-03-26T08:32:00.024Z,1.3787
2023-03-26T08:34:04.215Z,5.0776
2023-03-26T08:35:06.421Z,4.0155
2023-03-26T08:37:10.696Z,4.3751
2023-03-26T08:38:12.889Z,8.3227
2023-03-26T08:39:15.009Z,7.4546
2023-03-26T08:41:19.229Z,1.1682
2023-03-26T08:43:23.505Z,6.1252
2023-03-26T08:44:25.703Z,4.1348
2023-03-26T08:45:27.976Z,3.6647
2023-03-26T08:46:30.159Z,6.4021
2023-03-26T08:47:32.329Z,5.7039
2023-03-26T08:48:34.625Z,3.5440
2023-03-26T08:49:36.823Z,5.7624
2023-03-26T08:50:38.977Z,8.6817
2023-03-26T08:51:41.103Z,3.7277
2023-03-26T08:52:43.332Z,3.2575
2023-03-26T08:53:45.467Z,3.9037
2023-03-26T08:54:47.695Z,7.3940
2023-03-26T08:55:49.832Z,4.5996
2023-03-26T08:57:54.074Z,7.9988
2023-03-26T08:58:56.286Z,8.0842
2023-03-26T08:59:59.278Z,10.6540
2023-03-26T09:00:58.489Z,9.7064
2023-03-26T09:02:00.735Z,7.5095
2023-03-26T09:03:02.900Z,9.4290
2023-03-26T09:04:05.108Z,12.6403
2023-03-26T09:05:07.405Z,10.7426
2023-03-26T09:06:09.515Z,9.6643
2023-03-26T09:07:11.738Z,10.7134
2023-03-26T09:09:19.153Z,13.5452
2023-03-26T09:10:17.419Z,9.6636
2023-03-26T09:11:19.627Z,12.2863
2023-03-26T09:12:22.842Z,13.2489
2023-03-26T09:13:23.208Z,12.9977
2023-03-26T09:14:25.373Z,13.6051
2023-03-26T09:15:27.534Z,17.7686
2023-03-26T09:16:29.762Z,13.3239
2023-03-26T09:18:33.959Z,20.9503
2023-03-26T09:19:36.142Z,13.6794
2023-03-26T09:20:38.422Z,16.6291
2023-03-26T09:22:42.683Z,15.9254
2023-03-26T09:23:44.865Z,16.5282
2023-03-26T09:25:49.065Z,11.0945
2023-03-26T09:26:51.277Z,14.5999
2023-03-26T09:27:53.441Z,12.5798
2023-03-26T09:28:55.613Z,13.7916
2023-03-26T09:29:57.772Z,17.4225
2023-03-26T09:30:59.976Z,18.6197
2023-03-26T09:32:02.133Z,22.0719
2023-03-26T09:33:04.324Z,19.7256
2023-03-26T09:34:06.504Z,16.8214
2023-03-26T09:35:08.648Z,14.6803
2023-03-26T09:36:11.225Z,18.5014
2023-03-26T09:37:13.442Z,15.0105
2023-03-26T09:38:15.632Z,14.1980
2023-03-26T09:39:17.802Z,13.9151
2023-03-26T09:40:19.990Z,16.8168
2023-03-26T09:41:22.200Z,15.6444
2023-03-26T09:42:24.394Z,15.3115
2023-03-26T09:44:28.670Z,18.4201
2023-03-26T09:45:30.948Z,15.4108
2023-03-26T09:47:35.182Z,14.4175
2023-03-26T09:48:37.413Z,12.7333
2023-03-26T09:49:39.557Z,15.6005
2023-03-26T09:50:41.778Z,17.3316
2023-03-26T09:51:44.038Z,14.6602
2023-03-26T09:52:46.196Z,13.1500
2023-03-26T09:53:48.355Z,11.9315
2023-03-26T09:54:50.585Z,13.8578
2023-03-26T09:56:54.876Z,14.8653
2023-03-26T09:57:56.994Z,16.0665
2023-03-26T09:58:59.193Z,13.2668
2023-03-26T10:00:01.367Z,16.8262
2023-03-26T10:01:03.636Z,12.9721
2023-03-26T10:02:05.894Z,14.1759
2023-03-26T10:03:08.148Z,16.7033
2023-03-26T10:04:10.373Z,14.5854
2023-03-26T10:05:12.597Z,15.2398
2023-03-26T10:06:14.856Z,16.3177
2023-03-26T10:07:17.020Z,13.5063
2023-03-26T10:08:19.287Z,16.4094
2023-03-26T10:09:21.439Z,14.1165
2023-03-26T10:10:23.654Z,13.4571
2023-03-26T10:11:25.814Z,16.9810
2023-03-26T10:12:28.206Z,17.3861
2023-03-26T10:13:30.497Z,15.6759
2023-03-26T10:14:32.658Z,14.9302
2023-03-26T10:15:34.961Z,15.8214
2023-03-26T10:16:37.301Z,20.4410
2023-03-26T10:17:39.569Z,20.5937
2023-03-26T10:18:41.713Z,16.9960
2023-03-26T10:19:44.236Z,16.3392
2023-03-26T10:20:46.527Z,19.6194
2023-03-26T10:21:48.718Z,20.3398
2023-03-26T10:22:50.977Z,13.9989
2023-03-26T10:23:53.120Z,14.6103
2023-03-26T10:24:55.363Z,13.4889
2023-03-26T10:25:57.673Z,10.5298
2023-03-26T10:27:09.113Z,11.7842
2023-03-26T10:28:03.589Z,13.5278
2023-03-26T10:29:05.824Z,13.2383
2023-03-26T10:30:08.014Z,12.3906
2023-03-26T10:31:10.179Z,11.0581
2023-03-26T10:32:12.452Z,11.4050
2023-03-26T10:33:14.891Z,10.3046
2023-03-26T10:34:28.659Z,10.2305
2023-03-26T10:35:20.833Z,11.7486
2023-03-26T10:37:25.153Z,16.0266
2023-03-26T10:38:27.385Z,14.0097
2023-03-26T10:39:37.216Z,10.8683
2023-03-26T10:40:33.265Z,10.8625
2023-03-26T10:41:35.498Z,15.9852
2023-03-26T10:42:37.641Z,11.5812
2023-03-26T10:43:39.829Z,13.2674
2023-03-26T10:44:42.048Z,11.1708
2023-03-26T10:45:44.340Z,12.2709
2023-03-26T10:46:46.715Z,12.1160
2023-03-26T10:47:49.129Z,10.4940
2023-03-26T10:49:53.310Z,13.1747
2023-03-26T10:50:55.785Z,17.5221
2023-03-26T10:51:58.872Z,16.5558
2023-03-26T10:53:01.083Z,6.9303
2023-03-26T10:54:03.500Z,13.0344
2023-03-26T10:55:05.695Z,10.3674
2023-03-26T10:56:07.948Z,16.9761
2023-03-26T10:57:10.317Z,12.4531
2023-03-26T10:58:12.494Z,12.9390
2023-03-26T10:59:15.057Z,19.2472
2023-03-26T11:00:17.516Z,15.8781
2023-03-26T11:01:19.790Z,16.5346
2023-03-26T11:02:29.299Z,14.4933
2023-03-26T11:03:25.937Z,13.0952
2023-03-26T11:04:28.082Z,18.6066
2023-03-26T11:05:30.366Z,15.5291
2023-03-26T11:06:32.629Z,14.1360
2023-03-26T11:07:34.821Z,12.9409
2023-03-26T11:08:36.950Z,20.2617
2023-03-26T11:09:39.207Z,18.7247
2023-03-26T11:10:41.411Z,21.4144
2023-03-26T11:11:43.932Z,19.0303
2023-03-26T11:12:46.180Z,21.2686
2023-03-26T11:13:48.361Z,14.5971
2023-03-26T11:14:50.628Z,13.2713
2023-03-26T11:15:53.046Z,18.2956
2023-03-26T11:16:55.387Z,22.5809
2023-03-26T11:17:57.614Z,20.6998
2023-03-26T11:18:59.754Z,22.9027
2023-03-26T11:20:01.953Z,19.7186
2023-03-26T11:21:19.106Z,15.0534
2023-03-26T11:22:07.964Z,13.6940
2023-03-26T11:23:10.100Z,21.9617
2023-03-26T11:24:13.264Z,17.9855
2023-03-26T11:25:15.418Z,22.7982
2023-03-26T11:26:17.690Z,20.9243
2023-03-26T11:27:21.323Z,25.4353
2023-03-26T11:28:21.140Z,22.6686
2023-03-26T11:29:32.297Z,14.5978
2023-03-26T11:30:26.917Z,17.7478
2023-03-26T11:31:29.243Z,17.0603
2023-03-26T11:32:31.513Z,15.4494
2023-03-26T11:33:33.619Z,14.8884
2023-03-26T11:34:35.822Z,13.0336
2023-03-26T11:35:40.625Z,11.1726
2023-03-26T11:36:39.150Z,15.0166
2023-03-26T11:37:41.324Z,16.3636
2023-03-26T11:39:45.581Z,24.1405
2023-03-26T11:40:47.680Z,27.8213
2023-03-26T11:41:49.880Z,22.4098
2023-03-26T11:42:52.045Z,18.2028
2023-03-26T11:43:54.368Z,16.1099
2023-03-26T11:44:56.794Z,17.0063
2023-03-26T11:45:59.131Z,14.0832
2023-03-26T11:47:01.370Z,11.4820
2023-03-26T11:48:03.571Z,14.5863
2023-03-26T11:49:05.719Z,17.6141
2023-03-26T11:52:12.000Z,12.8974
2023-03-26T11:53:14.183Z,13.9218
2023-03-26T11:54:16.405Z,14.2119
2023-03-26T11:55:18.608Z,19.5765
2023-03-26T11:56:20.837Z,15.5745
2023-03-26T11:57:23.067Z,16.5247
2023-03-26T11:58:25.261Z,20.7774
2023-03-26T11:59:27.421Z,17.7506
2023-03-26T12:01:31.792Z,21.3869
2023-03-26T12:02:34.156Z,14.0133
2023-03-26T12:04:38.524Z,13.1815
2023-03-26T12:05:40.692Z,11.9350
2023-03-26T12:06:42.794Z,13.4802
2023-03-26T12:07:44.913Z,13.0472
2023-03-26T12:08:47.093Z,17.1524
2023-03-26T12:09:49.246Z,18.1420
2023-03-26T12:10:51.427Z,13.5571
2023-03-26T12:11:53.635Z,11.4692
2023-03-26T12:12:55.822Z,10.8626
2023-03-26T12:13:58.046Z,16.0471
2023-03-26T12:15:00.204Z,14.1319
2023-03-26T12:16:02.357Z,16.4589
2023-03-26T12:17:04.623Z,15.1731
2023-03-26T12:18:27.757Z,15.1760
2023-03-26T12:19:07.848Z,14.3383
2023-03-26T12:20:09.962Z,14.4342
2023-03-26T12:21:12.248Z,13.3812
2023-03-26T12:22:14.409Z,11.7360
2023-03-26T12:23:16.707Z,10.8238
2023-03-26T12:24:18.966Z,10.4427
2023-03-26T12:25:21.181Z,12.6261
2023-03-26T12:26:23.357Z,14.8147
2023-03-26T12:27:25.511Z,17.4112
2023-03-26T12:28:27.660Z,15.6469
2023-03-26T12:29:29.807Z,17.1187
2023-03-26T12:30:32.068Z,16.6368
2023-03-26T12:31:34.270Z,18.0341
2023-03-26T12:32:45.868Z,16.1746
2023-03-26T12:33:40.220Z,21.0867
2023-03-26T12:34:42.434Z,20.7830
2023-03-26T12:35:44.695Z,21.1663
2023-03-26T12:36:46.950Z,26.4974
2023-03-26T12:39:16.731Z,26.7865
2023-03-26T12:40:09.271Z,21.4244
2023-03-26T12:40:58.524Z,23.9017
2023-03-26T12:47:56.670Z,17.5066
2023-03-26T12:47:58.583Z,16.6534
2023-03-26T12:48:16.177Z,17.2797
2023-03-26T12:49:18.934Z,18.9555
2023-03-26T12:50:34.436Z,24.5273
2023-03-26T12:51:24.900Z,24.2015
2023-03-26T12:52:27.053Z,25.0211
2023-03-26T12:54:31.285Z,22.7330
2023-03-26T12:55:33.443Z,16.4594
2023-03-26T12:57:37.991Z,15.9373
2023-03-26T12:59:42.148Z,21.6918
2023-03-26T13:00:44.259Z,18.0981
2023-03-26T13:01:46.347Z,20.9533
2023-03-26T13:02:48.611Z,22.1620
2023-03-26T13:03:52.824Z,21.6462
2023-03-26T13:05:05.050Z,15.7000
2023-03-26T13:05:58.580Z,15.9666
2023-03-26T13:07:02.268Z,21.6562
2023-03-26T13:08:04.722Z,21.5453
2023-03-26T13:09:06.922Z,16.0585
2023-03-26T13:10:09.216Z,18.2680
2023-03-26T13:11:11.464Z,21.7025
2023-03-26T13:12:13.758Z,18.5356
2023-03-26T13:13:15.881Z,26.8693
2023-03-26T13:14:18.113Z,23.0827
2023-03-26T13:15:20.326Z,22.1656
2023-03-26T13:16:22.505Z,26.4982
2023-03-26T13:17:24.893Z,18.2754
2023-03-26T13:18:27.038Z,21.3759
2023-03-26T13:19:29.221Z,17.8616
2023-03-26T13:20:31.430Z,19.0139
2023-03-26T13:21:33.630Z,24.0873
2023-03-26T13:22:35.807Z,19.9350
2023-03-26T13:23:37.937Z,15.4762
2023-03-26T13:24:40.233Z,23.7663
2023-03-26T13:25:42.333Z,23.1986
2023-03-26T13:26:44.484Z,26.6362
2023-03-26T13:27:46.586Z,20.0909
2023-03-26T13:30:52.918Z,20.4818
2023-03-26T13:31:55.352Z,15.3110
2023-03-26T13:32:57.573Z,16.4626
2023-03-26T13:33:59.765Z,14.5674
2023-03-26T13:35:01.966Z,13.6043
2023-03-26T13:36:21.768Z,10.7160
2023-03-26T13:37:07.746Z,13.7457
2023-03-26T13:39:12.002Z,13.8549
2023-03-26T13:40:14.193Z,13.4387
2023-03-26T13:42:18.516Z,19.7965
2023-03-26T13:43:20.626Z,23.2911
2023-03-26T13:44:22.806Z,14.9075
2023-03-26T13:45:24.945Z,19.3077
2023-03-26T13:46:27.208Z,19.6039
2023-03-26T13:47:29.344Z,15.4227
2023-03-26T13:48:31.527Z,21.5855
2023-03-26T13:49:33.709Z,18.6761
2023-03-26T13:50:35.911Z,17.6811
2023-03-26T13:51:38.161Z,16.6299
2023-03-26T13:52:40.387Z,17.9091
2023-03-26T13:53:42.525Z,19.4340
2023-03-26T13:54:44.791Z,18.2671
2023-03-26T13:55:46.943Z,19.1293
2023-03-26T13:56:49.180Z,24.7222
2023-03-26T13:57:51.380Z,19.2434
2023-03-26T13:58:53.628Z,19.1253
2023-03-26T13:59:55.763Z,22.2327